Air Resources Laboratory banner image
Air Resources Laboratory web site National Oceanic and Atmospheric Administration (NOAA)

az metar


KCGZ 180256Z AUTO 25007KT 10SM CLR 37/17 A2987 RMK AO2 SLP095 T03720172 53005 $=
KCHD 180247Z 27005KT 10SM FEW100 SCT200 39/14 A2983=
KDMA 180258Z AUTO 18026G32KT 10SM BKN110 32/17 A2998 RMK AO2 LTG DSNT S SLP104
 T03200171 53017 $=
KDUG 180256Z AUTO 18012KT 10SM SCT110 28/14 A3011 RMK AO2 SLP123 T02780139
 53017=
KDVT 180253Z AUTO 24007KT 10SM CLR 38/15 A2985 RMK AO2 SLP077 T03780150 53006=
KFHU 180258Z AUTO 19006KT 10SM SCT140 26/14 A3016 RMK AO2 SLP138 60000
 T02620140 53013=
KFLG 180257Z 00000KT 10SM SCT085 20/13 A3034 RMK AO2 LTG DSNT W AND NW SLP172
 T02000128 53007=
KGCN 180254Z 07011KT 4SM TSRA BR BKN070 BKN090 19/14 A3037 RMK AO2 LTG DSNT
 ALQDS RAB38 TSB30 SLP181 TS OVH MOV LTL FREQ LTGCG ALQDS P0009 60009 T01940144
 50018=
KGEU 180248Z 21005KT 10SM SCT070 SCT100 39/17 A2984=
KGYR 180247Z 23007KT 10SM SCT080 SCT180 BKN250 38/19 A2982=
KIFP 180255Z AUTO 18009KT 10SM CLR 42/14 A2976 RMK AO2=
KIGM 180251Z AUTO 11012KT 10SM CLR 28/18 A3004 RMK AO2 SLP096 T02830183 56003=
KINW 180256Z AUTO 24003KT 10SM CLR 26/21 A3015 RMK AO2 SLP130 60011 T02560206
 55003=
KIWA 180250Z 28009KT 20SM SCT150 38/14 A2985 RMK TCU DSNT S-SW=
KLUF 180258Z AUTO 22006KT 10SM CLR 38/17 A2982 RMK AO2 SLP082 T03840166 53005 $=
KNYL 180257Z AUTO 19009KT 10SM CLR 36/20 A2982 RMK AO2 SLP093 T03610200 53008=
KOLS 180254Z AUTO 10004KT 10SM FEW120 22/22 A3012 RMK AO2 PK WND 14036/0201
 WSHFT 0148 LTG DSNT N AND W RAB0157E31 TSE15 SLP138 P0017 60020 T02170217
 51023=
KPGA 180253Z AUTO 05004KT 10SM CLR 32/08 A3008 RMK AO2 SLP111 60000 T03220078
 53001 TSNO $=
KPHX 180251Z 29012KT 10SM FEW120 SCT150 SCT190 BKN250 39/16 A2981 RMK AO2
 SLP072 CB DSNT S-SW T03940156 53005=
KPRC 180253Z 28004KT 10SM FEW095 26/17 A3019 RMK AO2 LTG DSNT NE SLP138
 T02610172 53003=
KRQE 180253Z AUTO 07003KT 10SM CLR 23/14 A3031 RMK AO2 SLP141 T02280139 53007=
KSAD 180251Z AUTO 13006KT 10SM CLR 34/10 A2999 RMK AO2 SLP097 T03390100 53007=
KSDL 180253Z 27006KT 10SM CLR 38/14 A2987 RMK AO2 SLP083 T03780139 53006=
KSJN 180254Z AUTO 22008KT 10SM FEW120 27/12 A3022 RMK AO2 SLP133 T02670122
 53004 $=
KSOW 180255Z AUTO 15006KT 10SM FEW110 23/14 A3032 RMK AO2=
KTUS 180253Z 16012G18KT 10SM BKN110 33/17 A3000 RMK AO2 LTG DSNT S PRESRR
 SLP107 T03280167 53020=